Time;durP1;ratioP1;P1;durP2;ratioP2;P2;SDS_P1;SDS_P2;PMS_P1;PMS_P2;Temp;Humidity;BMP_temperature;BMP_pressure;BME280_temperature;BME280_humidity;BME280_pressure;Samples;Min_cycle;Max_cycle;Signal;HPM_P1;HPM_P2
2022/02/09 00:06:42;;;;;;;30.37;4.97;;;11.40;99.90;;;;;;5065143;28;20197;-66
2022/02/09 00:09:09;;;;;;;20.03;3.33;;;11.40;99.90;;;;;;5075982;28;20194;-65
2022/02/09 00:12:00;;;;;;;27.80;3.67;;;11.40;99.90;;;;;;5084729;28;20316;-64
2022/02/09 00:14:59;;;;;;;18.70;3.33;;;11.40;99.90;;;;;;5082692;28;20259;-64
2022/02/09 01:02:58;;;;;;;17.60;3.80;;;11.20;99.90;;;;;;5080888;28;20216;-65
2022/02/09 01:03:10;;;;;;;31.67;4.80;;;11.30;99.90;;;;;;5090316;28;20437;-67
2022/02/09 01:12:05;;;;;;;15.47;2.77;;;11.20;99.90;;;;;;5082098;28;20198;-64
2022/02/09 01:38:45;;;;;;;23.27;4.13;;;11.00;99.90;;;;;;5095970;28;20218;-66
2022/02/09 01:57:14;;;;;;;16.80;3.60;;;10.70;99.90;;;;;;5084498;28;20210;-67
2022/02/09 01:59:44;;;;;;;27.43;4.33;;;10.60;99.90;;;;;;5086699;28;20264;-66
2022/02/09 02:02:11;;;;;;;23.47;3.80;;;10.50;99.90;;;;;;5083936;28;20654;-66
2022/02/09 02:04:39;;;;;;;21.73;3.77;;;10.40;99.90;;;;;;5072694;28;20203;-65
2022/02/09 02:07:15;;;;;;;16.53;3.37;;;10.40;99.90;;;;;;5074939;28;20725;-66
2022/02/09 02:09:41;;;;;;;19.60;4.03;;;10.20;99.90;;;;;;5101358;28;20233;-64
2022/02/09 02:12:16;;;;;;;19.67;3.13;;;10.20;99.90;;;;;;5086389;28;20258;-65
2022/02/09 02:14:55;;;;;;;15.43;3.13;;;10.10;99.90;;;;;;5073388;28;20194;-65
2022/02/09 02:17:30;;;;;;;15.73;3.03;;;10.00;99.90;;;;;;5082298;28;20224;-65
2022/02/09 02:20:02;;;;;;;22.73;3.60;;;9.80;99.90;;;;;;5064722;28;20194;-65
2022/02/09 02:22:48;;;;;;;16.93;2.60;;;9.70;99.90;;;;;;5050126;28;20183;-64
2022/02/09 02:41:39;;;;;;;19.27;3.17;;;9.70;99.90;;;;;;5084457;28;20213;-66
2022/02/09 03:08:31;;;;;;;13.90;2.47;;;9.30;99.90;;;;;;5077949;28;20631;-65
2022/02/09 03:13:39;;;;;;;11.43;2.60;;;9.30;99.90;;;;;;5079093;28;20189;-64
2022/02/09 03:16:11;;;;;;;22.00;3.17;;;9.30;99.90;;;;;;5083855;28;20623;-66
2022/02/09 03:21:41;;;;;;;16.97;2.73;;;9.30;99.90;;;;;;5065082;28;20186;-65
2022/02/09 03:24:11;;;;;;;11.87;2.33;;;9.30;99.90;;;;;;5077046;28;20857;-66
2022/02/09 03:53:27;;;;;;;16.60;3.37;;;9.10;99.90;;;;;;5069999;28;20482;-64
2022/02/09 03:58:20;;;;;;;12.03;2.90;;;8.90;99.90;;;;;;5070595;28;20210;-64
2022/02/09 04:00:47;;;;;;;13.93;2.70;;;8.80;99.90;;;;;;5081604;28;20220;-64
2022/02/09 04:03:18;;;;;;;13.17;3.07;;;8.80;99.90;;;;;;5082334;28;20271;-64
2022/02/09 04:05:47;;;;;;;15.13;2.50;;;8.80;99.90;;;;;;5064008;28;20224;-66
2022/02/09 04:08:16;;;;;;;18.50;2.90;;;8.70;99.90;;;;;;5073101;28;20266;-64
2022/02/09 04:10:48;;;;;;;15.60;3.20;;;8.70;99.90;;;;;;5083112;28;20186;-64
2022/02/09 04:18:30;;;;;;;14.67;2.67;;;8.60;99.90;;;;;;5082076;28;20695;-64
2022/02/09 04:44:25;;;;;;;12.27;1.97;;;8.60;99.90;;;;;;5044193;28;20203;-64
2022/02/09 04:51:49;;;;;;;11.63;2.20;;;8.40;99.90;;;;;;5081923;28;20227;-65
2022/02/09 04:56:50;;;;;;;10.80;2.13;;;8.40;99.90;;;;;;5075407;28;20264;-65
2022/02/09 04:59:45;;;;;;;10.50;1.93;;;8.30;99.90;;;;;;5075820;28;20217;-64
2022/02/09 05:05:08;;;;;;;10.47;2.07;;;8.40;99.90;;;;;;5067774;28;20422;-64
2022/02/09 05:21:47;;;;;;;9.03;1.80;;;8.10;99.90;;;;;;5076085;28;20187;-64
2022/02/09 05:29:22;;;;;;;10.13;1.60;;;8.10;99.90;;;;;;5082249;28;20215;-64
2022/02/09 05:31:50;;;;;;;11.57;2.10;;;8.10;99.90;;;;;;5075440;28;20881;-64
2022/02/09 05:34:17;;;;;;;5.43;1.57;;;8.10;99.90;;;;;;5086182;28;20202;-66
2022/02/09 05:36:43;;;;;;;6.53;1.37;;;7.80;99.90;;;;;;5083471;28;20205;-65
2022/02/09 05:39:09;;;;;;;8.00;1.50;;;7.70;99.90;;;;;;5083978;28;20536;-64
2022/02/09 05:41:42;;;;;;;6.10;1.40;;;7.60;99.90;;;;;;5067768;28;20191;-63
2022/02/09 05:44:10;;;;;;;8.37;1.80;;;7.60;99.90;;;;;;5075713;28;20190;-65
2022/02/09 05:52:03;;;;;;;6.47;1.67;;;7.60;99.90;;;;;;5080749;28;20630;-65
2022/02/09 05:59:46;;;;;;;9.57;1.67;;;7.70;99.90;;;;;;5064831;28;20174;-65
2022/02/09 06:02:15;;;;;;;7.37;1.80;;;7.70;99.90;;;;;;5066953;28;20599;-64
2022/02/09 06:04:41;;;;;;;6.00;1.77;;;7.70;99.90;;;;;;5085284;28;20255;-63
2022/02/09 06:07:07;;;;;;;15.60;2.20;;;7.70;99.90;;;;;;5084063;28;20194;-64
2022/02/09 06:09:36;;;;;;;15.10;2.23;;;7.60;99.90;;;;;;5084429;28;20201;-65
2022/02/09 06:19:53;;;;;;;15.87;2.30;;;7.70;99.90;;;;;;5067603;28;20187;-65
2022/02/09 06:22:23;;;;;;;6.73;1.50;;;7.70;99.90;;;;;;5052089;28;20178;-65
2022/02/09 06:24:50;;;;;;;8.07;1.63;;;7.70;99.90;;;;;;5094567;28;20628;-65
2022/02/09 06:27:16;;;;;;;12.50;1.90;;;7.70;99.90;;;;;;5070074;28;20277;-64
2022/02/09 06:29:47;;;;;;;10.13;1.70;;;7.80;99.90;;;;;;5083234;28;20220;-64
2022/02/09 06:32:18;;;;;;;10.77;1.93;;;7.80;99.90;;;;;;5086034;28;20822;-64
2022/02/09 06:34:45;;;;;;;12.70;1.67;;;7.90;99.90;;;;;;5082372;28;20198;-66
2022/02/09 06:39:47;;;;;;;11.90;2.00;;;8.00;99.90;;;;;;5066317;28;20174;-65
2022/02/09 06:42:21;;;;;;;13.97;2.73;;;8.00;99.90;;;;;;5076464;28;20506;-64
2022/02/09 06:44:49;;;;;;;16.17;2.83;;;8.00;99.90;;;;;;5082183;28;20308;-64
2022/02/09 06:47:17;;;;;;;12.03;2.73;;;8.10;99.90;;;;;;5067084;28;20323;-64
2022/02/09 06:49:44;;;;;;;13.27;2.30;;;8.10;99.90;;;;;;5065945;28;20183;-65
2022/02/09 06:52:10;;;;;;;12.03;2.43;;;8.00;99.90;;;;;;5066086;28;20186;-65
2022/02/09 06:54:45;;;;;;;19.00;3.23;;;8.10;99.90;;;;;;5082198;28;20190;-64
2022/02/09 06:57:27;;;;;;;9.90;2.13;;;8.20;99.90;;;;;;5081813;28;20213;-64
2022/02/09 06:59:54;;;;;;;11.07;3.17;;;8.20;99.90;;;;;;5067175;28;20212;-66
2022/02/09 07:02:23;;;;;;;10.70;2.07;;;8.30;99.90;;;;;;5075971;28;20693;-64
2022/02/09 07:04:49;;;;;;;13.30;2.50;;;8.30;99.90;;;;;;5065547;28;20231;-64
2022/02/09 07:07:17;;;;;;;5.43;1.67;;;8.20;99.90;;;;;;5046813;28;20194;-65
2022/02/09 07:09:43;;;;;;;10.03;2.00;;;8.10;99.90;;;;;;5067385;28;20277;-64
2022/02/09 07:12:10;;;;;;;9.23;1.50;;;8.10;99.90;;;;;;5081349;28;20288;-64
2022/02/09 07:14:37;;;;;;;11.40;2.93;;;8.00;99.90;;;;;;5078630;28;20855;-65
2022/02/09 07:17:04;;;;;;;10.03;1.70;;;7.90;99.90;;;;;;5072807;28;20301;-65
2022/02/09 07:19:32;;;;;;;7.30;1.73;;;7.90;99.90;;;;;;5068948;28;20178;-64
2022/02/09 07:21:58;;;;;;;14.03;2.50;;;7.80;99.90;;;;;;5083435;28;20493;-65
2022/02/09 07:24:26;;;;;;;9.20;1.80;;;7.80;99.90;;;;;;5062425;28;20187;-64
2022/02/09 07:27:24;;;;;;;14.03;1.93;;;7.70;99.90;;;;;;5065942;28;20531;-64
2022/02/09 07:29:39;;;;;;;11.43;2.23;;;7.70;99.90;;;;;;5066613;28;20185;-66
2022/02/09 07:32:07;;;;;;;8.03;1.83;;;7.80;99.90;;;;;;5046509;28;20265;-66
2022/02/09 07:34:33;;;;;;;11.70;2.13;;;7.90;99.90;;;;;;5071140;28;20297;-65
2022/02/09 07:36:59;;;;;;;13.17;3.13;;;7.90;99.90;;;;;;5060453;28;20210;-65
2022/02/09 07:39:26;;;;;;;18.63;1.77;;;8.00;99.90;;;;;;5080634;28;20278;-65
2022/02/09 07:41:54;;;;;;;14.53;2.17;;;8.10;99.90;;;;;;5073307;28;20205;-65
2022/02/09 07:44:52;;;;;;;8.97;2.30;;;8.10;99.90;;;;;;5082018;28;20706;-64
2022/02/09 07:48:13;;;;;;;19.37;2.30;;;8.20;99.90;;;;;;5079471;28;20194;-64
2022/02/09 07:50:46;;;;;;;12.00;2.07;;;8.40;99.90;;;;;;5076250;28;20225;-65
2022/02/09 07:55:35;;;;;;;8.37;1.40;;;8.60;99.90;;;;;;5075237;28;20697;-65
2022/02/09 07:58:03;;;;;;;9.20;2.13;;;8.70;99.90;;;;;;5080092;28;20225;-66
2022/02/09 08:00:31;;;;;;;18.43;2.30;;;8.70;99.90;;;;;;5076847;28;20218;-64
2022/02/09 08:02:57;;;;;;;12.93;2.17;;;8.80;99.90;;;;;;5063149;28;20199;-66
2022/02/09 08:05:24;;;;;;;13.60;2.57;;;8.90;99.90;;;;;;5078313;28;20617;-64
2022/02/09 08:07:53;;;;;;;13.00;2.40;;;8.90;99.90;;;;;;5081352;28;20213;-66
2022/02/09 08:10:27;;;;;;;14.03;2.23;;;8.90;99.90;;;;;;5074428;28;20685;-65
2022/02/09 08:26:36;;;;;;;12.93;1.70;;;8.20;99.90;;;;;;5080081;28;20186;-65
2022/02/09 08:29:04;;;;;;;11.33;1.60;;;8.30;99.90;;;;;;5076041;28;20318;-64
2022/02/09 08:34:06;;;;;;;11.50;1.70;;;8.50;99.90;;;;;;5062844;28;20214;-65
2022/02/09 08:36:33;;;;;;;11.03;1.90;;;8.70;99.90;;;;;;5073862;28;20182;-65
2022/02/09 08:38:59;;;;;;;16.80;1.80;;;8.80;99.90;;;;;;5067112;28;20398;-63
2022/02/09 08:41:26;;;;;;;17.57;2.03;;;9.00;99.90;;;;;;5067956;28;20209;-66
2022/02/09 08:43:53;;;;;;;13.77;2.47;;;9.00;99.90;;;;;;5064965;28;20191;-66
2022/02/09 08:46:20;;;;;;;13.23;1.80;;;9.10;99.90;;;;;;5072097;28;20694;-64
2022/02/09 08:48:47;;;;;;;7.40;1.80;;;9.20;99.90;;;;;;5069569;28;20189;-66
2022/02/09 08:51:14;;;;;;;10.77;2.67;;;9.20;99.90;;;;;;5077401;28;20601;-68
2022/02/09 08:53:40;;;;;;;6.17;1.63;;;9.20;99.90;;;;;;5072437;28;20198;-68
2022/02/09 08:56:10;;;;;;;13.13;2.00;;;9.20;99.90;;;;;;5072177;28;20194;-66
2022/02/09 08:58:37;;;;;;;10.30;2.13;;;9.20;99.90;;;;;;5068224;28;20226;-66
2022/02/09 09:01:09;;;;;;;14.23;2.37;;;9.10;99.90;;;;;;5081716;28;20281;-67
2022/02/09 09:03:48;;;;;;;7.07;1.93;;;9.00;99.90;;;;;;5069513;28;20270;-66
2022/02/09 09:06:19;;;;;;;4.53;1.33;;;8.90;99.90;;;;;;5069534;28;20182;-65
2022/02/09 09:09:13;;;;;;;3.77;0.80;;;8.60;99.90;;;;;;5072252;28;20523;-64
2022/02/09 10:33:13;;;;;;;6.83;1.60;;;10.70;99.90;;;;;;5070571;28;20735;-64
2022/02/09 10:36:44;;;;;;;9.53;1.50;;;10.70;99.90;;;;;;5078615;28;20223;-68
2022/02/09 10:38:39;;;;;;;5.53;1.93;;;11.10;99.90;;;;;;5062168;28;20703;-67
2022/02/09 10:41:29;;;;;;;5.67;1.40;;;11.40;99.90;;;;;;5076402;28;20195;-65
2022/02/09 10:44:14;;;;;;;8.50;2.47;;;11.70;99.90;;;;;;5073572;28;20194;-63
2022/02/09 10:46:55;;;;;;;5.87;1.40;;;12.10;99.90;;;;;;5060116;28;20273;-67
2022/02/09 10:49:29;;;;;;;5.70;1.40;;;12.00;99.90;;;;;;5071437;28;20418;-65
2022/02/09 10:54:30;;;;;;;10.17;1.60;;;11.50;99.90;;;;;;5072331;28;20686;-64
2022/02/09 10:57:00;;;;;;;4.17;1.30;;;11.20;99.90;;;;;;5071710;28;20303;-65
2022/02/09 10:59:35;;;;;;;5.10;1.70;;;10.90;99.90;;;;;;5072765;28;20191;-66
2022/02/09 11:02:04;;;;;;;7.27;1.20;;;10.60;99.90;;;;;;5056469;28;20615;-67
2022/02/09 11:04:33;;;;;;;6.57;1.43;;;10.40;99.90;;;;;;5094746;28;20620;-68
2022/02/09 11:07:01;;;;;;;5.40;1.33;;;10.40;99.90;;;;;;5073761;28;20236;-67
2022/02/09 11:09:29;;;;;;;5.10;1.33;;;10.50;99.90;;;;;;5075688;28;20190;-67
2022/02/09 11:12:03;;;;;;;8.53;1.27;;;10.50;99.90;;;;;;5072550;28;20907;-68
2022/02/09 11:14:29;;;;;;;7.13;1.37;;;10.50;99.90;;;;;;5067289;28;20190;-66
2022/02/09 11:16:59;;;;;;;11.10;2.43;;;10.90;99.90;;;;;;5077193;28;20183;-66
2022/02/09 11:19:40;;;;;;;8.67;1.50;;;11.00;99.90;;;;;;5077917;28;20228;-66
2022/02/09 11:22:23;;;;;;;8.13;1.77;;;11.00;99.90;;;;;;5047292;28;20297;-65
2022/02/09 11:25:18;;;;;;;7.07;1.53;;;10.80;99.90;;;;;;5068185;28;20208;-65
2022/02/09 11:27:52;;;;;;;5.90;1.47;;;10.90;99.90;;;;;;5074325;28;20286;-66
2022/02/09 11:36:26;;;;;;;3.60;1.03;;;10.90;99.90;;;;;;5071827;28;20190;-65
2022/02/09 11:39:02;;;;;;;10.10;1.20;;;11.00;99.90;;;;;;5068862;28;20463;-66
2022/02/09 11:41:36;;;;;;;7.80;1.50;;;11.00;99.90;;;;;;5064334;28;20565;-66
2022/02/09 11:44:14;;;;;;;5.80;1.43;;;10.90;99.90;;;;;;5071644;28;20185;-65
2022/02/09 11:47:15;;;;;;;6.27;1.20;;;10.80;99.90;;;;;;5066320;28;20631;-66
2022/02/09 11:50:18;;;;;;;6.37;1.93;;;10.70;99.90;;;;;;5059651;28;20277;-64
2022/02/09 12:01:33;;;;;;;3.47;1.27;;;10.60;99.90;;;;;;5068969;28;20195;-66
2022/02/09 12:09:34;;;;;;;7.87;1.53;;;10.90;99.90;;;;;;5078738;28;20189;-67
2022/02/09 12:12:08;;;;;;;5.93;1.30;;;11.20;99.90;;;;;;5069458;28;20201;-65
2022/02/09 12:17:46;;;;;;;7.13;1.60;;;11.30;99.90;;;;;;5074055;28;20206;-65
2022/02/09 12:25:44;;;;;;;3.23;1.10;;;11.00;99.90;;;;;;5068270;28;20187;-65
2022/02/09 12:28:23;;;;;;;6.33;1.47;;;10.90;99.90;;;;;;5069312;28;20293;-65
2022/02/09 12:31:06;;;;;;;8.63;1.73;;;10.80;99.90;;;;;;5082729;28;20200;-66
2022/02/09 12:33:50;;;;;;;8.50;1.57;;;10.70;99.90;;;;;;5078977;28;20221;-67
2022/02/09 12:36:29;;;;;;;6.20;2.37;;;10.60;99.90;;;;;;5072079;28;20197;-68
2022/02/09 12:39:01;;;;;;;9.50;2.33;;;10.50;99.90;;;;;;5064642;28;20218;-65
2022/02/09 12:41:31;;;;;;;15.07;1.83;;;10.50;99.90;;;;;;5064223;28;20207;-66
2022/02/09 12:44:09;;;;;;;9.10;1.63;;;10.50;99.90;;;;;;5073435;28;20666;-65
2022/02/09 12:46:39;;;;;;;9.97;2.23;;;10.50;99.90;;;;;;5077471;28;20248;-67
2022/02/09 12:49:16;;;;;;;11.70;1.90;;;10.50;99.90;;;;;;5077191;28;20205;-65
2022/02/09 12:51:46;;;;;;;10.03;1.73;;;10.50;99.90;;;;;;5076182;28;20475;-66
2022/02/09 12:54:16;;;;;;;13.30;2.40;;;10.50;99.90;;;;;;5072238;28;20198;-66
2022/02/09 12:56:52;;;;;;;6.30;1.87;;;10.60;99.90;;;;;;5072095;28;20293;-66
2022/02/09 12:59:21;;;;;;;6.60;1.67;;;10.60;99.90;;;;;;5068098;28;20198;-64
2022/02/09 13:01:55;;;;;;;8.67;1.80;;;10.50;99.90;;;;;;5066608;28;20186;-67
2022/02/09 13:04:40;;;;;;;8.57;1.90;;;10.60;99.90;;;;;;5062118;28;20314;-68
2022/02/09 13:07:18;;;;;;;5.63;1.60;;;10.80;99.90;;;;;;5068076;28;20186;-68
2022/02/09 13:09:51;;;;;;;7.03;1.80;;;10.90;99.90;;;;;;5079983;28;20198;-65
2022/02/09 13:12:29;;;;;;;9.03;1.37;;;10.90;99.90;;;;;;5096168;27;21034;-69
2022/02/09 13:15:19;;;;;;;5.03;1.40;;;11.00;99.90;;;;;;5080528;28;20182;-67
2022/02/09 13:21:11;;;;;;;4.53;1.33;;;10.90;99.90;;;;;;5074206;28;20191;-66
2022/02/09 13:23:56;;;;;;;3.50;1.30;;;10.70;99.90;;;;;;5078646;28;20194;-66
2022/02/09 14:16:01;;;;;;;6.10;1.80;;;9.20;99.90;;;;;;5076547;28;20213;-66
2022/02/09 14:53:25;;;;;;;6.53;2.20;;;9.30;99.90;;;;;;5064693;28;20213;-67
2022/02/09 14:56:00;;;;;;;9.97;2.47;;;9.30;99.90;;;;;;5080872;28;20272;-63
2022/02/09 14:58:30;;;;;;;8.87;2.50;;;9.10;99.90;;;;;;5071708;28;20305;-64
2022/02/09 15:01:14;;;;;;;10.33;2.30;;;8.90;99.90;;;;;;5054738;28;20666;-67
2022/02/09 15:03:52;;;;;;;5.40;1.90;;;8.70;99.90;;;;;;5082890;28;20792;-67
2022/02/09 15:14:07;;;;;;;3.93;2.03;;;8.50;99.90;;;;;;5075896;28;20197;-65
2022/02/09 15:17:00;;;;;;;5.43;2.10;;;8.60;99.90;;;;;;5078531;28;20202;-69
2022/02/09 15:19:38;;;;;;;9.20;2.90;;;8.60;99.90;;;;;;5076772;28;20255;-65
2022/02/09 15:22:09;;;;;;;5.07;2.40;;;8.60;99.90;;;;;;5066070;28;20210;-66
2022/02/09 15:24:44;;;;;;;6.93;2.53;;;8.60;99.90;;;;;;5070992;28;20247;-64
2022/02/09 15:27:18;;;;;;;7.83;2.67;;;8.70;99.90;;;;;;5072384;28;20194;-64
2022/02/09 15:29:47;;;;;;;7.77;2.30;;;8.70;99.90;;;;;;5075327;28;20197;-64
2022/02/09 15:35:19;;;;;;;8.87;2.80;;;8.60;99.90;;;;;;5069958;28;20201;-63
2022/02/09 15:37:56;;;;;;;7.57;3.03;;;8.60;99.90;;;;;;5077918;28;20635;-66
2022/02/09 15:40:35;;;;;;;7.83;4.50;;;8.60;99.90;;;;;;5065303;28;20193;-64
2022/02/09 15:43:16;;;;;;;11.13;4.50;;;8.50;99.90;;;;;;5067279;28;20239;-65
2022/02/09 16:23:25;;;;;;;5.00;2.47;;;7.60;99.90;;;;;;5072275;28;20190;-65
2022/02/09 16:26:05;;;;;;;8.40;2.33;;;7.60;99.90;;;;;;5067931;28;20269;-67
2022/02/09 16:44:51;;;;;;;4.00;2.20;;;7.60;99.90;;;;;;5078657;28;20562;-64
2022/02/09 16:50:02;;;;;;;6.23;4.20;;;7.70;99.90;;;;;;5076734;28;20202;-66
2022/02/09 16:52:43;;;;;;;8.93;3.90;;;7.70;99.90;;;;;;5083919;28;20195;-65
2022/02/09 17:19:39;;;;;;;3.03;1.83;;;7.60;99.90;;;;;;5085877;28;20193;-65
2022/02/09 17:22:06;;;;;;;2.33;1.70;;;7.50;99.90;;;;;;5083164;28;20286;-64
2022/02/09 17:24:33;;;;;;;3.87;1.60;;;7.50;99.90;;;;;;5080771;28;20190;-64
2022/02/09 17:26:59;;;;;;;4.60;1.73;;;7.40;99.90;;;;;;5085123;28;20190;-63
2022/02/09 17:29:39;;;;;;;2.97;1.63;;;7.40;99.90;;;;;;5087347;28;20201;-65
2022/02/09 17:32:26;;;;;;;3.87;1.70;;;7.40;99.90;;;;;;5084898;28;20257;-65
2022/02/09 17:35:12;;;;;;;3.27;1.70;;;7.30;99.90;;;;;;5063430;28;20625;-63
2022/02/09 17:54:13;;;;;;;2.53;1.60;;;7.20;99.90;;;;;;5083436;28;20190;-65
2022/02/09 17:56:48;;;;;;;1.90;1.50;;;7.20;99.90;;;;;;5083046;28;20247;-64
2022/02/09 17:59:20;;;;;;;3.53;2.07;;;7.20;99.90;;;;;;5086556;28;20767;-64
2022/02/09 18:01:46;;;;;;;4.87;2.40;;;7.20;99.90;;;;;;5087375;28;20186;-64
2022/02/09 18:04:13;;;;;;;5.40;3.50;;;7.20;99.90;;;;;;5085023;28;21031;-65
2022/02/09 18:06:45;;;;;;;3.30;2.40;;;7.20;99.90;;;;;;5086113;28;20265;-64
2022/02/09 18:09:16;;;;;;;3.43;2.30;;;7.20;99.90;;;;;;5079798;28;20713;-67
2022/02/09 18:14:47;;;;;;;3.20;2.10;;;7.20;99.90;;;;;;5074859;28;20182;-65
2022/02/09 18:26:43;;;;;;;2.33;1.70;;;7.10;99.90;;;;;;5077626;28;20202;-65
2022/02/09 18:29:27;;;;;;;3.57;1.50;;;7.10;99.90;;;;;;5082216;28;20225;-66
2022/02/09 18:31:17;;;;;;;3.43;1.63;;;7.00;99.90;;;;;;5071565;28;20946;-66
2022/02/09 18:44:34;;;;;;;4.03;3.00;;;6.80;99.90;;;;;;5065699;28;20746;-66
2022/02/09 19:03:31;;;;;;;1.53;1.03;;;6.60;99.90;;;;;;5075325;28;20578;-65
2022/02/09 19:06:05;;;;;;;1.33;0.90;;;6.60;99.90;;;;;;5085708;28;20725;-66
2022/02/09 19:16:57;;;;;;;1.50;1.20;;;6.60;99.90;;;;;;5075218;28;20189;-64
2022/02/09 19:54:38;;;;;;;2.27;1.70;;;6.20;99.90;;;;;;5080017;28;20741;-66
2022/02/09 19:57:04;;;;;;;1.87;1.53;;;6.20;99.90;;;;;;5075558;28;20201;-66
2022/02/09 19:59:31;;;;;;;2.20;1.33;;;6.20;99.90;;;;;;5066464;28;20612;-65
2022/02/09 20:01:58;;;;;;;1.20;1.10;;;6.10;99.90;;;;;;5072691;28;20644;-63
2022/02/09 20:04:25;;;;;;;1.93;1.20;;;6.10;99.90;;;;;;5073415;28;20194;-63
2022/02/09 20:06:51;;;;;;;1.80;1.30;;;6.10;99.90;;;;;;5080513;28;20198;-66
2022/02/09 20:09:18;;;;;;;1.30;1.20;;;6.10;99.90;;;;;;5080912;28;20281;-65
2022/02/09 20:11:45;;;;;;;2.17;1.10;;;6.10;99.90;;;;;;5063987;28;20210;-65
2022/02/09 20:14:12;;;;;;;2.00;1.10;;;6.10;99.90;;;;;;5066835;28;20190;-66
2022/02/09 20:16:40;;;;;;;1.43;1.10;;;6.10;99.90;;;;;;5068128;28;20194;-65
2022/02/09 20:19:07;;;;;;;1.93;1.30;;;6.00;99.90;;;;;;5071607;28;20523;-64
2022/02/09 20:21:33;;;;;;;2.37;1.23;;;6.00;99.90;;;;;;5072857;28;20256;-66
2022/02/09 20:24:04;;;;;;;1.53;1.20;;;6.00;99.90;;;;;;5075658;28;20546;-64
2022/02/09 20:26:31;;;;;;;2.23;1.17;;;6.00;99.90;;;;;;5077887;28;20645;-63
2022/02/09 20:29:03;;;;;;;3.20;1.30;;;6.00;99.90;;;;;;5077244;28;20240;-64
2022/02/09 20:31:34;;;;;;;1.63;1.30;;;5.90;99.90;;;;;;5078682;28;20213;-65
2022/02/09 20:34:14;;;;;;;2.73;1.33;;;5.90;99.90;;;;;;5069589;28;20237;-64
2022/02/09 20:36:42;;;;;;;1.83;1.10;;;5.90;99.90;;;;;;5078815;28;20200;-63
2022/02/09 20:39:11;;;;;;;4.13;1.40;;;5.90;99.90;;;;;;5081089;28;20610;-63
2022/02/09 20:41:39;;;;;;;1.93;1.30;;;5.90;99.90;;;;;;5067006;28;20221;-64
2022/02/09 20:44:18;;;;;;;4.20;1.40;;;6.00;99.90;;;;;;5064976;28;20196;-64
2022/02/09 20:46:45;;;;;;;2.03;1.40;;;5.90;99.90;;;;;;5075132;28;20197;-65
2022/02/09 20:49:11;;;;;;;1.67;1.47;;;5.80;99.90;;;;;;5074684;28;20202;-62
2022/02/09 20:51:38;;;;;;;1.83;1.40;;;5.80;99.90;;;;;;5061852;28;20185;-64
2022/02/09 20:54:04;;;;;;;1.63;1.10;;;5.80;99.90;;;;;;5091530;28;20203;-63
2022/02/09 20:56:31;;;;;;;4.50;1.30;;;5.80;99.90;;;;;;5075127;28;20225;-65
2022/02/09 20:59:02;;;;;;;2.77;1.30;;;5.80;99.90;;;;;;5067886;28;20480;-64
2022/02/09 21:01:39;;;;;;;1.50;1.30;;;5.70;99.90;;;;;;5073459;28;20197;-64
2022/02/09 21:04:09;;;;;;;1.40;1.13;;;5.60;99.90;;;;;;5071242;28;20512;-64
2022/02/09 21:09:45;;;;;;;2.00;1.40;;;5.60;99.90;;;;;;5070149;28;20768;-65
2022/02/09 21:15:14;;;;;;;2.40;1.37;;;5.70;99.90;;;;;;5064035;28;20662;-63
2022/02/09 21:18:08;;;;;;;2.57;1.50;;;5.80;99.90;;;;;;5065237;28;20347;-65
2022/02/09 21:20:51;;;;;;;2.77;1.40;;;5.80;99.90;;;;;;5069880;28;20190;-65
2022/02/09 21:26:24;;;;;;;2.00;1.23;;;5.70;99.90;;;;;;5074628;28;20195;-64
2022/02/09 21:31:47;;;;;;;2.93;1.30;;;5.70;99.90;;;;;;5073691;28;20203;-63
2022/02/09 21:55:27;;;;;;;1.50;1.40;;;5.70;99.90;;;;;;5072165;28;20224;-63
2022/02/09 21:58:05;;;;;;;3.77;1.93;;;5.70;99.90;;;;;;5070366;28;20224;-66
2022/02/09 22:01:02;;;;;;;2.57;1.57;;;5.70;99.90;;;;;;5080111;28;20274;-65
2022/02/09 22:56:41;;;;;;;2.70;1.10;;;5.90;99.90;;;;;;5071919;28;20537;-64
2022/02/09 22:59:16;;;;;;;7.07;1.70;;;6.00;99.90;;;;;;5078438;28;20651;-64
2022/02/09 23:01:50;;;;;;;3.73;1.20;;;6.00;99.90;;;;;;5054157;28;20652;-65
2022/02/09 23:04:46;;;;;;;3.13;1.20;;;6.00;99.90;;;;;;5068159;28;20193;-64
2022/02/09 23:08:38;;;;;;;2.90;1.40;;;5.90;99.90;;;;;;5075956;28;20191;-65
2022/02/09 23:10:54;;;;;;;5.30;1.50;;;5.80;99.90;;;;;;5067618;28;20225;-64
2022/02/09 23:13:05;;;;;;;1.60;1.00;;;5.80;99.90;;;;;;5083287;28;20854;-63
2022/02/09 23:15:40;;;;;;;2.97;1.17;;;5.80;99.90;;;;;;5078705;28;20203;-64
2022/02/09 23:18:43;;;;;;;2.17;1.20;;;5.80;99.90;;;;;;5065648;28;20241;-64
2022/02/09 23:21:37;;;;;;;3.83;1.40;;;5.80;99.90;;;;;;5064108;28;20707;-63
